グアテマラシティ の空港の天気 - METARとTAF

ラ・アウロラ国際空港 ( MGGT / GUA ) - グアテマラ グアテマラシティ
飛行場実況気象(Metar)
観測時間08/04 13:00 CST (08/04 19:00 UTC)
風向・風速北北東 6m/s
視程10km以上
天気現象
少しの雲 雲底高度 610m
全天を覆う雲 雲底高度 6100m
気温26℃
湿度61%
気圧1026hPa
METARMGGT 041900Z 03012KT 9999 FEW020TCU OVC200 26/18 Q1026 A3030 TCU WSW
過去の天気等 Google飛行場航空写真 Wunderground天気予報

過去48時間のMETAR

飛行場予報(TAF)
発表時間: 8/04 11:00 CST (8/04 17:00 UTC)
予報対象時間: 4日12時 CST ~ 5日12時 CST
風向・風速北東 5m/s
視程10km以上
全天の4割程度の雲 雲底高度 550m
全天の8割程度の雲 雲底高度 2440m
4日12時 CST ~ 5日12時 CST に一時的に
視程7000m
天気現象雨霧雨
全天の8割程度の雲 雲底高度 430m
4日14時 CST から 確率 40% で
視程6000m
天気現象雷雨
全天の4割程度の塔状積雲 雲底高度 610m
少しの積乱雲 雲底高度 760m
4日18時 CST ~ 4日20時 CST に徐々に
風向・風速北 5m/s
全天の4割程度の雲 雲底高度 430m
5日8時 CST ~ 5日10時 CST に徐々に
全天の4割程度の雲 雲底高度 550m
MGGT 041700Z 0418/0518 04010KT 9999 SCT018 BKN080 TX28/0420Z TN16/0512Z
TEMPO 0418/0518 7000 RADZ BKN014
PROB40 0420/0503 6000 TSRA SCT020TCU FEW025CB
BECMG 0500/0502 36010KT SCT014
BECMG 0514/0516 SCT018